Time;durP1;ratioP1;P1;durP2;ratioP2;P2;SDS_P1;SDS_P2;PMS_P1;PMS_P2;Temp;Humidity;BMP_temperature;BMP_pressure;BME280_temperature;BME280_humidity;BME280_pressure;Samples;Min_cycle;Max_cycle;Signal;HPM_P1;HPM_P2
2024/01/18 00:00:06;;;;;;;6.87;2.70;;;;;;;;;;5018926;28;87879;-66
2024/01/18 00:02:38;;;;;;;6.63;3.20;;;;;;;;;;5018609;28;88049;-66
2024/01/18 00:05:06;;;;;;;4.60;3.00;;;;;;;;;;5018475;28;89578;-66
2024/01/18 00:07:35;;;;;;;4.80;2.60;;;;;;;;;;5018645;28;87896;-66
2024/01/18 00:10:04;;;;;;;7.00;3.97;;;;;;;;;;5019538;28;88817;-65
2024/01/18 00:12:35;;;;;;;4.20;2.50;;;;;;;;;;5018753;28;87642;-65
2024/01/18 00:15:04;;;;;;;7.47;2.40;;;;;;;;;;5005818;28;89590;-66
2024/01/18 00:17:32;;;;;;;6.20;3.03;;;;;;;;;;5015572;28;89770;-65
2024/01/18 00:20:02;;;;;;;6.33;3.13;;;;;;;;;;5018239;28;90033;-66
2024/01/18 00:22:30;;;;;;;6.03;3.23;;;;;;;;;;5018829;28;87653;-66
2024/01/18 00:24:59;;;;;;;3.73;2.67;;;;;;;;;;5018300;28;89615;-66
2024/01/18 00:27:27;;;;;;;4.97;3.13;;;;;;;;;;5016912;28;88022;-66
2024/01/18 00:29:56;;;;;;;4.00;3.10;;;;;;;;;;5018123;28;88924;-66
2024/01/18 00:32:24;;;;;;;6.57;3.10;;;;;;;;;;5018590;28;87542;-65
2024/01/18 00:34:53;;;;;;;5.00;3.17;;;;;;;;;;5018741;28;89714;-66
2024/01/18 00:37:23;;;;;;;5.43;2.90;;;;;;;;;;5018168;28;89198;-66
2024/01/18 00:39:52;;;;;;;5.23;2.87;;;;;;;;;;5017920;28;88731;-66
2024/01/18 00:42:23;;;;;;;3.43;2.70;;;;;;;;;;5018104;28;87910;-66
2024/01/18 00:44:52;;;;;;;4.57;2.57;;;;;;;;;;5018092;28;89798;-66
2024/01/18 00:47:22;;;;;;;5.10;2.30;;;;;;;;;;5018171;28;89216;-65
2024/01/18 00:49:51;;;;;;;5.63;3.33;;;;;;;;;;5018028;28;88022;-66
2024/01/18 00:52:19;;;;;;;5.90;3.17;;;;;;;;;;5018999;28;88003;-66
2024/01/18 00:54:49;;;;;;;4.70;2.80;;;;;;;;;;5018066;28;89833;-66
2024/01/18 00:57:17;;;;;;;2.60;2.40;;;;;;;;;;5017775;28;89078;-66
2024/01/18 00:59:46;;;;;;;3.77;2.67;;;;;;;;;;5018466;28;88935;-66
2024/01/18 01:02:14;;;;;;;3.37;3.00;;;;;;;;;;5011995;28;87582;-66
2024/01/18 01:04:42;;;;;;;3.13;2.67;;;;;;;;;;5014430;28;89376;-66
2024/01/18 01:07:11;;;;;;;4.43;3.40;;;;;;;;;;5017326;28;90299;-66
2024/01/18 01:09:39;;;;;;;7.07;3.50;;;;;;;;;;5017771;28;88876;-66
2024/01/18 01:12:09;;;;;;;6.50;3.33;;;;;;;;;;5017930;28;87651;-66
2024/01/18 01:14:37;;;;;;;5.67;3.33;;;;;;;;;;5017693;28;88703;-66
2024/01/18 01:17:06;;;;;;;4.43;2.93;;;;;;;;;;5017567;28;89073;-66
2024/01/18 01:19:34;;;;;;;4.10;3.20;;;;;;;;;;5017766;28;87703;-66
2024/01/18 01:22:03;;;;;;;4.80;3.20;;;;;;;;;;5017707;28;87680;-66
2024/01/18 01:24:32;;;;;;;5.60;3.50;;;;;;;;;;5017511;28;89668;-66
2024/01/18 01:27:00;;;;;;;3.73;2.73;;;;;;;;;;5017022;28;89167;-66
2024/01/18 01:29:30;;;;;;;5.10;3.80;;;;;;;;;;5023739;28;88873;-66
2024/01/18 01:31:58;;;;;;;6.40;3.87;;;;;;;;;;5037708;28;87879;-66
2024/01/18 01:34:26;;;;;;;5.00;3.13;;;;;;;;;;5037889;28;88509;-66
2024/01/18 01:36:55;;;;;;;8.73;3.93;;;;;;;;;;5037860;28;87905;-67
2024/01/18 01:39:23;;;;;;;5.47;3.53;;;;;;;;;;5025921;27;89210;-66
2024/01/18 01:41:52;;;;;;;5.30;2.80;;;;;;;;;;5017702;28;87563;-66
2024/01/18 01:44:20;;;;;;;5.77;3.30;;;;;;;;;;5016997;28;89703;-67
2024/01/18 01:46:50;;;;;;;3.13;2.77;;;;;;;;;;5016408;28;89191;-66
2024/01/18 01:49:18;;;;;;;5.87;3.33;;;;;;;;;;5021684;28;88799;-67
2024/01/18 01:51:48;;;;;;;3.60;2.80;;;;;;;;;;5030812;28;87685;-66
2024/01/18 01:54:17;;;;;;;7.40;2.63;;;;;;;;;;5017697;28;89547;-66
2024/01/18 01:56:46;;;;;;;5.47;3.07;;;;;;;;;;5016973;28;90159;-66
2024/01/18 01:59:14;;;;;;;3.53;2.63;;;;;;;;;;5017360;28;91349;-67
2024/01/18 02:01:43;;;;;;;4.90;2.97;;;;;;;;;;5017782;28;87630;-67
2024/01/18 02:04:12;;;;;;;3.87;2.83;;;;;;;;;;5017002;28;89667;-67
2024/01/18 02:06:41;;;;;;;5.50;2.83;;;;;;;;;;5017449;28;89229;-67
2024/01/18 02:09:11;;;;;;;4.83;3.47;;;;;;;;;;5017448;28;88891;-66
2024/01/18 02:11:39;;;;;;;3.07;2.33;;;;;;;;;;5016749;28;87444;-66
2024/01/18 02:14:07;;;;;;;6.03;3.10;;;;;;;;;;5016968;28;89567;-66
2024/01/18 02:16:36;;;;;;;4.37;3.40;;;;;;;;;;5016351;28;89220;-67
2024/01/18 02:19:04;;;;;;;10.77;3.53;;;;;;;;;;5016845;28;88918;-66
2024/01/18 02:21:34;;;;;;;3.53;2.30;;;;;;;;;;5016338;28;88300;-67
2024/01/18 02:24:04;;;;;;;7.00;3.20;;;;;;;;;;5016910;28;90378;-67
2024/01/18 02:26:34;;;;;;;5.70;2.97;;;;;;;;;;5016850;28;89137;-67
2024/01/18 02:29:02;;;;;;;5.27;3.00;;;;;;;;;;5016708;28;88970;-66
2024/01/18 02:31:31;;;;;;;5.20;3.00;;;;;;;;;;5016864;28;87505;-67
2024/01/18 02:33:59;;;;;;;4.70;3.50;;;;;;;;;;5016927;28;89940;-67
2024/01/18 02:36:28;;;;;;;3.33;2.83;;;;;;;;;;5017133;28;89142;-67
2024/01/18 02:38:57;;;;;;;7.17;3.80;;;;;;;;;;5016490;28;88804;-67
2024/01/18 02:41:25;;;;;;;8.53;3.67;;;;;;;;;;5016676;28;87618;-66
2024/01/18 02:43:55;;;;;;;5.00;2.90;;;;;;;;;;5016237;28;89618;-66
2024/01/18 02:46:23;;;;;;;6.40;4.10;;;;;;;;;;5016131;28;89850;-66
2024/01/18 02:48:51;;;;;;;8.20;4.30;;;;;;;;;;5015403;28;89906;-66
2024/01/18 02:51:20;;;;;;;6.77;3.23;;;;;;;;;;5019077;28;88152;-66
2024/01/18 02:53:48;;;;;;;6.93;4.23;;;;;;;;;;5019713;28;89674;-66
2024/01/18 02:56:16;;;;;;;6.80;3.13;;;;;;;;;;5019913;28;89180;-66
2024/01/18 02:58:45;;;;;;;6.47;4.50;;;;;;;;;;5018278;28;88364;-65
2024/01/18 03:01:14;;;;;;;8.70;3.97;;;;;;;;;;5021282;28;88387;-65
2024/01/18 03:03:43;;;;;;;8.57;4.23;;;;;;;;;;5016501;28;89659;-66
2024/01/18 03:06:12;;;;;;;8.70;4.10;;;;;;;;;;5020086;28;88925;-65
2024/01/18 03:08:40;;;;;;;5.30;3.73;;;;;;;;;;5020884;28;88906;-65
2024/01/18 03:11:08;;;;;;;7.63;5.07;;;;;;;;;;5021007;28;87826;-66
2024/01/18 03:13:37;;;;;;;8.00;4.17;;;;;;;;;;5022256;28;88537;-66
2024/01/18 03:16:05;;;;;;;6.53;4.20;;;;;;;;;;5019685;28;87982;-65
2024/01/18 03:18:35;;;;;;;6.63;4.30;;;;;;;;;;5021966;28;88817;-66
2024/01/18 03:21:06;;;;;;;7.63;4.60;;;;;;;;;;5022642;28;87421;-65
2024/01/18 03:23:34;;;;;;;6.17;4.07;;;;;;;;;;5019626;28;89732;-66
2024/01/18 03:26:03;;;;;;;8.00;5.23;;;;;;;;;;5022139;28;89126;-65
2024/01/18 03:28:31;;;;;;;11.57;5.10;;;;;;;;;;5017338;28;88814;-66
2024/01/18 03:30:59;;;;;;;8.93;6.00;;;;;;;;;;5021906;28;87757;-66
2024/01/18 03:33:27;;;;;;;10.70;5.03;;;;;;;;;;5020708;28;89638;-66
2024/01/18 03:35:58;;;;;;;8.33;4.77;;;;;;;;;;5013344;28;90347;-65
2024/01/18 03:38:26;;;;;;;6.77;4.03;;;;;;;;;;5031149;28;89987;-65
2024/01/18 03:40:54;;;;;;;11.73;4.90;;;;;;;;;;5021149;28;88320;-66
2024/01/18 03:43:23;;;;;;;7.93;4.20;;;;;;;;;;5020472;28;89605;-65
2024/01/18 03:45:51;;;;;;;8.93;5.17;;;;;;;;;;5017573;28;89149;-65
2024/01/18 03:48:21;;;;;;;9.70;4.70;;;;;;;;;;5013422;28;87674;-65
2024/01/18 03:50:51;;;;;;;6.53;5.13;;;;;;;;;;5023232;28;87604;-65
2024/01/18 03:53:21;;;;;;;7.30;4.57;;;;;;;;;;5018921;28;89632;-65
2024/01/18 03:55:50;;;;;;;8.50;4.83;;;;;;;;;;5010346;28;89125;-65
2024/01/18 03:58:18;;;;;;;8.47;4.93;;;;;;;;;;5014486;28;88912;-65
2024/01/18 04:00:47;;;;;;;8.33;4.77;;;;;;;;;;5011066;28;89279;-66
2024/01/18 04:03:16;;;;;;;7.67;3.50;;;;;;;;;;5018144;28;89392;-65
2024/01/18 04:05:47;;;;;;;6.03;3.60;;;;;;;;;;5024457;28;91766;-65
2024/01/18 04:08:17;;;;;;;8.33;4.23;;;;;;;;;;5015582;28;89107;-65
2024/01/18 04:10:47;;;;;;;8.47;4.70;;;;;;;;;;5018435;28;87758;-66
2024/01/18 04:13:15;;;;;;;14.63;5.00;;;;;;;;;;5014383;28;89542;-66
2024/01/18 04:15:47;;;;;;;8.07;4.63;;;;;;;;;;5018408;28;88967;-66
2024/01/18 04:18:16;;;;;;;6.33;4.03;;;;;;;;;;5014592;28;88786;-66
2024/01/18 04:20:44;;;;;;;5.70;3.27;;;;;;;;;;5014780;28;87585;-65
2024/01/18 04:23:13;;;;;;;5.33;4.30;;;;;;;;;;5018015;28;89159;-66
2024/01/18 04:25:41;;;;;;;6.40;3.43;;;;;;;;;;5014205;28;90664;-66
2024/01/18 04:28:11;;;;;;;5.10;3.07;;;;;;;;;;5017716;28;89773;-66
2024/01/18 04:30:39;;;;;;;4.23;3.27;;;;;;;;;;5018464;28;87642;-66
2024/01/18 04:33:08;;;;;;;6.67;4.17;;;;;;;;;;5017354;28;88557;-65
2024/01/18 04:35:37;;;;;;;6.43;4.03;;;;;;;;;;5013809;28;87823;-65
2024/01/18 04:38:05;;;;;;;7.50;3.53;;;;;;;;;;5018101;28;88904;-65
2024/01/18 04:40:34;;;;;;;5.43;3.53;;;;;;;;;;5009603;28;88028;-65
2024/01/18 04:43:02;;;;;;;6.57;3.90;;;;;;;;;;5017207;28;89575;-65
2024/01/18 04:45:32;;;;;;;9.57;4.70;;;;;;;;;;5016378;28;89149;-66
2024/01/18 04:48:00;;;;;;;6.63;4.00;;;;;;;;;;5013449;28;89151;-65
2024/01/18 04:50:29;;;;;;;6.57;3.80;;;;;;;;;;5012106;28;88000;-66
2024/01/18 04:52:57;;;;;;;7.20;3.53;;;;;;;;;;5018137;28;89653;-66
2024/01/18 04:55:28;;;;;;;4.17;3.20;;;;;;;;;;5017381;28;89122;-65
2024/01/18 04:57:58;;;;;;;3.27;2.83;;;;;;;;;;5014145;28;87713;-66
2024/01/18 05:00:26;;;;;;;5.03;3.30;;;;;;;;;;5017153;28;87577;-65
2024/01/18 05:02:56;;;;;;;4.97;3.37;;;;;;;;;;5014588;28;89822;-65
2024/01/18 05:05:25;;;;;;;5.40;3.40;;;;;;;;;;5014833;28;89696;-66
2024/01/18 05:07:53;;;;;;;7.10;3.77;;;;;;;;;;5015149;28;88811;-65
2024/01/18 05:10:22;;;;;;;4.67;3.37;;;;;;;;;;5016185;28;87659;-66
2024/01/18 05:12:52;;;;;;;8.17;3.27;;;;;;;;;;5017241;28;89635;-65
2024/01/18 05:15:23;;;;;;;4.77;3.60;;;;;;;;;;5015771;28;88862;-66
2024/01/18 05:17:51;;;;;;;5.67;2.93;;;;;;;;;;5014482;28;89781;-66
2024/01/18 05:20:21;;;;;;;4.70;2.60;;;;;;;;;;5015346;28;87506;-66
2024/01/18 05:22:49;;;;;;;5.60;3.07;;;;;;;;;;5020067;28;89639;-66
2024/01/18 05:25:18;;;;;;;4.23;2.17;;;;;;;;;;5018168;28;89001;-66
2024/01/18 05:27:46;;;;;;;4.97;2.70;;;;;;;;;;5017599;28;88791;-66
2024/01/18 05:30:15;;;;;;;4.20;2.93;;;;;;;;;;5018294;28;87683;-66
2024/01/18 05:32:43;;;;;;;3.50;2.27;;;;;;;;;;5018867;28;89997;-66
2024/01/18 05:35:11;;;;;;;2.43;1.80;;;;;;;;;;5018621;28;89266;-66
2024/01/18 05:37:41;;;;;;;5.47;2.43;;;;;;;;;;5018618;28;88852;-66
2024/01/18 05:40:10;;;;;;;3.63;2.30;;;;;;;;;;5019173;28;87926;-65
2024/01/18 05:42:38;;;;;;;4.00;2.93;;;;;;;;;;5020003;28;89776;-66
2024/01/18 05:45:07;;;;;;;5.23;2.90;;;;;;;;;;5018450;28;89138;-66
2024/01/18 05:47:36;;;;;;;2.83;2.00;;;;;;;;;;5020313;28;87496;-65
2024/01/18 05:50:05;;;;;;;3.83;1.70;;;;;;;;;;5016089;28;88098;-66
2024/01/18 05:52:34;;;;;;;3.73;2.00;;;;;;;;;;5017101;28;89748;-65
2024/01/18 05:55:04;;;;;;;2.20;2.03;;;;;;;;;;5019723;28;88479;-66
2024/01/18 05:57:32;;;;;;;2.77;1.90;;;;;;;;;;5019643;28;88857;-66
2024/01/18 06:00:01;;;;;;;3.37;1.50;;;;;;;;;;5015824;28;87600;-66
2024/01/18 06:02:29;;;;;;;2.30;1.53;;;;;;;;;;5019981;28;90146;-66
2024/01/18 06:04:58;;;;;;;1.53;1.13;;;;;;;;;;5019333;28;90082;-65
2024/01/18 06:07:26;;;;;;;2.87;1.63;;;;;;;;;;5016500;28;90154;-66
2024/01/18 06:09:54;;;;;;;4.50;1.97;;;;;;;;;;5016574;28;87710;-66
2024/01/18 06:12:24;;;;;;;2.80;1.23;;;;;;;;;;5012771;28;89670;-66
2024/01/18 06:14:52;;;;;;;6.13;1.63;;;;;;;;;;5016540;28;89080;-66
2024/01/18 06:17:21;;;;;;;3.03;1.70;;;;;;;;;;5019425;28;87717;-66
2024/01/18 06:19:49;;;;;;;3.17;1.83;;;;;;;;;;5018951;28;88759;-66
2024/01/18 06:22:18;;;;;;;3.33;1.70;;;;;;;;;;5019688;28;89670;-66
2024/01/18 06:24:46;;;;;;;2.07;1.87;;;;;;;;;;5013871;28;89280;-66
2024/01/18 06:27:14;;;;;;;2.70;1.23;;;;;;;;;;5020016;28;89049;-66
2024/01/18 06:29:44;;;;;;;1.33;1.23;;;;;;;;;;5013488;28;88425;-66
2024/01/18 06:32:13;;;;;;;3.60;2.00;;;;;;;;;;5019597;28;89563;-66
2024/01/18 06:34:42;;;;;;;2.57;1.70;;;;;;;;;;5022792;28;89109;-66
2024/01/18 06:37:10;;;;;;;1.00;0.90;;;;;;;;;;5022797;28;88811;-66
2024/01/18 06:39:38;;;;;;;2.47;2.07;;;;;;;;;;5017848;28;88388;-66
2024/01/18 06:42:07;;;;;;;2.07;1.40;;;;;;;;;;5023035;28;89675;-66
2024/01/18 06:44:36;;;;;;;2.63;1.27;;;;;;;;;;5021664;28;89148;-66
2024/01/18 06:47:06;;;;;;;2.73;1.67;;;;;;;;;;5022996;28;88861;-66
2024/01/18 06:49:38;;;;;;;2.30;1.43;;;;;;;;;;5022612;28;87595;-66
2024/01/18 06:52:07;;;;;;;2.13;1.60;;;;;;;;;;5022829;28;89531;-66
2024/01/18 06:54:35;;;;;;;3.30;1.23;;;;;;;;;;5022355;28;90096;-66
2024/01/18 06:57:04;;;;;;;2.83;2.17;;;;;;;;;;5017330;28;89493;-66
2024/01/18 06:59:32;;;;;;;3.70;2.57;;;;;;;;;;5020863;28;87597;-66
2024/01/18 07:02:01;;;;;;;1.77;1.63;;;;;;;;;;5022197;28;89672;-66
2024/01/18 07:04:32;;;;;;;1.53;1.13;;;;;;;;;;5021066;28;89093;-66
2024/01/18 07:07:00;;;;;;;2.47;1.47;;;;;;;;;;5022477;28;88721;-66
2024/01/18 07:09:29;;;;;;;2.53;2.07;;;;;;;;;;5022749;28;87614;-66
2024/01/18 07:11:57;;;;;;;3.77;1.63;;;;;;;;;;5022538;28;89288;-66
2024/01/18 07:14:26;;;;;;;1.33;1.13;;;;;;;;;;5022390;28;88079;-66
2024/01/18 07:16:57;;;;;;;1.50;1.07;;;;;;;;;;5019669;28;88867;-66
2024/01/18 07:19:26;;;;;;;3.83;1.97;;;;;;;;;;5022131;28;87927;-66
2024/01/18 07:21:55;;;;;;;1.50;1.33;;;;;;;;;;5022163;28;89844;-66
2024/01/18 07:24:27;;;;;;;1.80;1.30;;;;;;;;;;5019629;28;89157;-66
2024/01/18 07:26:55;;;;;;;2.10;1.43;;;;;;;;;;5022351;28;87712;-66
2024/01/18 07:29:24;;;;;;;2.00;1.40;;;;;;;;;;5019962;28;87684;-66
2024/01/18 07:31:52;;;;;;;1.97;1.30;;;;;;;;;;5021968;28;89366;-66
2024/01/18 07:34:20;;;;;;;2.47;1.67;;;;;;;;;;5024320;28;89092;-66
2024/01/18 07:36:49;;;;;;;3.17;1.57;;;;;;;;;;5020948;28;91167;-66
2024/01/18 07:39:19;;;;;;;1.97;1.33;;;;;;;;;;5022283;28;87792;-66
2024/01/18 07:41:47;;;;;;;1.60;1.33;;;;;;;;;;5019966;28;89739;-66
2024/01/18 07:44:15;;;;;;;1.67;1.20;;;;;;;;;;5018106;28;89782;-66
2024/01/18 07:46:43;;;;;;;4.63;1.73;;;;;;;;;;5017522;28;89777;-66
2024/01/18 07:49:12;;;;;;;2.37;1.20;;;;;;;;;;5021334;28;87628;-66
2024/01/18 07:51:41;;;;;;;1.83;1.17;;;;;;;;;;5021000;28;89983;-66
2024/01/18 07:54:09;;;;;;;4.40;1.67;;;;;;;;;;5021624;28;89109;-66
2024/01/18 07:56:39;;;;;;;2.33;1.50;;;;;;;;;;5021624;28;88523;-66
2024/01/18 07:59:07;;;;;;;1.27;1.07;;;;;;;;;;5021960;28;88291;-66
2024/01/18 08:01:35;;;;;;;1.60;1.50;;;;;;;;;;5019406;28;89663;-66
2024/01/18 08:04:07;;;;;;;1.33;1.23;;;;;;;;;;5019441;28;89339;-66
2024/01/18 08:06:36;;;;;;;1.57;0.93;;;;;;;;;;5021534;28;88521;-66
2024/01/18 08:09:04;;;;;;;2.83;1.47;;;;;;;;;;5019099;28;87851;-66
2024/01/18 08:11:33;;;;;;;1.03;0.80;;;;;;;;;;5021464;28;89771;-66
2024/01/18 08:14:02;;;;;;;4.60;1.50;;;;;;;;;;5021469;28;89171;-66
2024/01/18 08:16:31;;;;;;;1.00;1.00;;;;;;;;;;5021406;28;88832;-66
2024/01/18 08:18:59;;;;;;;1.60;1.40;;;;;;;;;;5021630;28;87667;-66
2024/01/18 08:21:28;;;;;;;1.63;0.90;;;;;;;;;;5021295;28;89513;-66
2024/01/18 08:23:56;;;;;;;1.17;0.80;;;;;;;;;;5021481;28;89146;-66
2024/01/18 08:26:24;;;;;;;2.07;1.27;;;;;;;;;;5019154;28;88862;-66
2024/01/18 08:28:53;;;;;;;1.93;1.20;;;;;;;;;;5021512;28;87620;-66
2024/01/18 08:31:22;;;;;;;0.80;0.80;;;;;;;;;;5020817;28;88567;-66
2024/01/18 08:33:51;;;;;;;0.70;0.43;;;;;;;;;;5020681;28;90060;-66
2024/01/18 08:36:19;;;;;;;2.47;1.27;;;;;;;;;;5021148;28;89884;-66
2024/01/18 08:38:48;;;;;;;1.07;1.00;;;;;;;;;;5021378;28;87291;-66
2024/01/18 08:41:17;;;;;;;0.80;0.70;;;;;;;;;;5020682;28;89815;-66
2024/01/18 08:43:45;;;;;;;1.23;0.80;;;;;;;;;;5021032;28;89149;-66
2024/01/18 08:46:14;;;;;;;0.90;0.87;;;;;;;;;;5020804;28;88604;-66
2024/01/18 08:48:44;;;;;;;1.20;1.10;;;;;;;;;;5020970;28;87705;-66
2024/01/18 08:51:13;;;;;;;1.67;0.90;;;;;;;;;;5021055;28;89582;-66
2024/01/18 08:53:42;;;;;;;2.07;1.00;;;;;;;;;;5020711;28;89055;-66
2024/01/18 08:56:12;;;;;;;2.00;1.10;;;;;;;;;;5021076;28;87398;-66
2024/01/18 08:58:41;;;;;;;2.03;0.73;;;;;;;;;;5020619;28;87805;-66
2024/01/18 09:01:09;;;;;;;4.60;1.17;;;;;;;;;;5020615;28;89660;-66
2024/01/18 09:03:38;;;;;;;1.37;0.90;;;;;;;;;;5017976;28;89062;-66
2024/01/18 09:06:08;;;;;;;0.67;0.53;;;;;;;;;;5018561;28;88890;-66
2024/01/18 09:08:36;;;;;;;1.43;0.93;;;;;;;;;;5020623;28;87697;-66
2024/01/18 09:11:05;;;;;;;5.37;1.33;;;;;;;;;;5016453;28;92628;-66
2024/01/18 09:13:33;;;;;;;0.50;0.50;;;;;;;;;;5012087;28;89159;-66
2024/01/18 09:16:01;;;;;;;2.83;1.37;;;;;;;;;;5014609;28;88820;-66
2024/01/18 09:18:30;;;;;;;1.23;1.13;;;;;;;;;;5018806;28;87687;-66
2024/01/18 09:20:58;;;;;;;2.03;1.00;;;;;;;;;;5018877;28;89700;-64
2024/01/18 09:23:28;;;;;;;1.40;1.00;;;;;;;;;;5017831;28;90034;-64
2024/01/18 09:25:56;;;;;;;1.00;0.80;;;;;;;;;;5020090;28;89765;-64
2024/01/18 09:28:24;;;;;;;1.47;0.80;;;;;;;;;;5017551;28;88686;-65
2024/01/18 09:30:53;;;;;;;0.93;0.80;;;;;;;;;;5015266;28;89650;-65
2024/01/18 09:33:21;;;;;;;1.03;0.63;;;;;;;;;;5019406;28;89026;-65
2024/01/18 09:35:51;;;;;;;1.30;0.60;;;;;;;;;;5017129;28;88638;-65
2024/01/18 09:38:21;;;;;;;1.90;0.80;;;;;;;;;;5019648;28;87623;-64
2024/01/18 09:40:51;;;;;;;1.67;0.90;;;;;;;;;;5018907;28;90008;-64
2024/01/18 09:43:19;;;;;;;1.33;0.73;;;;;;;;;;5016227;28;88986;-64
2024/01/18 09:45:48;;;;;;;1.27;0.80;;;;;;;;;;5013429;28;88808;-66
2024/01/18 09:48:16;;;;;;;0.73;0.60;;;;;;;;;;5018176;28;88734;-65
2024/01/18 09:50:45;;;;;;;2.33;0.80;;;;;;;;;;5017292;28;88530;-65
2024/01/18 09:53:14;;;;;;;0.93;0.70;;;;;;;;;;5019729;28;89176;-66
2024/01/18 09:55:43;;;;;;;2.90;1.00;;;;;;;;;;5019311;28;87856;-67
2024/01/18 09:58:13;;;;;;;1.30;0.67;;;;;;;;;;5019659;28;87485;-67
2024/01/18 10:00:44;;;;;;;1.83;0.80;;;;;;;;;;5018949;28;89519;-67
2024/01/18 10:03:13;;;;;;;1.00;0.60;;;;;;;;;;5019768;28;89107;-67
2024/01/18 10:05:42;;;;;;;2.40;1.00;;;;;;;;;;5019897;28;88822;-67
2024/01/18 10:08:10;;;;;;;1.63;0.67;;;;;;;;;;5019787;28;87502;-67
2024/01/18 10:10:39;;;;;;;1.83;0.90;;;;;;;;;;5013705;28;89679;-67
2024/01/18 10:13:07;;;;;;;1.80;0.60;;;;;;;;;;5018027;28;90165;-67
2024/01/18 10:15:37;;;;;;;1.93;0.50;;;;;;;;;;5019089;28;89818;-67
2024/01/18 10:18:06;;;;;;;0.57;0.50;;;;;;;;;;5017525;28;87681;-67
2024/01/18 10:20:35;;;;;;;0.90;0.87;;;;;;;;;;5019573;28;89705;-67
2024/01/18 10:23:03;;;;;;;0.50;0.50;;;;;;;;;;5019732;28;91085;-67
2024/01/18 10:25:32;;;;;;;0.73;0.70;;;;;;;;;;5019228;28;88835;-66
2024/01/18 10:28:01;;;;;;;0.60;0.60;;;;;;;;;;5018691;28;87463;-66
2024/01/18 10:30:31;;;;;;;0.70;0.70;;;;;;;;;;5019781;28;90069;-67
2024/01/18 10:33:02;;;;;;;0.30;0.30;;;;;;;;;;5019381;28;89141;-67
2024/01/18 10:35:31;;;;;;;0.50;0.50;;;;;;;;;;5019672;28;89081;-67
2024/01/18 10:38:03;;;;;;;0.40;0.40;;;;;;;;;;5018681;28;87873;-67
2024/01/18 10:40:33;;;;;;;2.80;0.97;;;;;;;;;;5007903;28;89633;-66
2024/01/18 10:43:01;;;;;;;0.33;0.30;;;;;;;;;;5011458;28;89242;-67
2024/01/18 10:45:30;;;;;;;0.57;0.50;;;;;;;;;;5018799;28;88941;-66
2024/01/18 10:47:59;;;;;;;0.40;0.40;;;;;;;;;;5018757;28;87586;-66
2024/01/18 10:50:29;;;;;;;0.40;0.40;;;;;;;;;;5019338;28;89452;-66
2024/01/18 10:52:58;;;;;;;3.07;0.60;;;;;;;;;;5018650;28;89245;-67
2024/01/18 10:55:26;;;;;;;0.60;0.40;;;;;;;;;;5016442;28;88713;-68
2024/01/18 10:57:55;;;;;;;1.73;0.70;;;;;;;;;;5016835;28;88292;-67
2024/01/18 11:00:23;;;;;;;3.90;0.90;;;;;;;;;;5019002;28;89896;-67
2024/01/18 11:02:52;;;;;;;2.40;1.30;;;;;;;;;;5017807;28;90086;-67
2024/01/18 11:05:21;;;;;;;2.30;1.87;;;;;;;;;;5019268;28;89780;-67
2024/01/18 11:07:51;;;;;;;1.53;1.40;;;;;;;;;;5020113;28;87649;-67
2024/01/18 11:10:20;;;;;;;3.43;1.93;;;;;;;;;;5018333;28;89702;-67
2024/01/18 11:12:49;;;;;;;1.90;1.77;;;;;;;;;;5021742;28;89222;-67
2024/01/18 11:15:18;;;;;;;3.40;2.43;;;;;;;;;;5022439;28;88880;-67
2024/01/18 11:17:46;;;;;;;3.47;2.10;;;;;;;;;;5022270;28;87493;-67
2024/01/18 11:20:15;;;;;;;4.50;2.90;;;;;;;;;;5019480;28;91096;-67
2024/01/18 11:22:43;;;;;;;5.60;2.87;;;;;;;;;;5021605;28;89100;-67
2024/01/18 11:25:13;;;;;;;6.10;3.00;;;;;;;;;;5019789;28;91033;-67
2024/01/18 11:27:41;;;;;;;7.03;3.63;;;;;;;;;;5021395;28;88514;-68
2024/01/18 11:30:13;;;;;;;6.87;3.57;;;;;;;;;;5021519;28;89796;-67
2024/01/18 11:32:41;;;;;;;6.20;3.90;;;;;;;;;;5021513;28;89141;-66
2024/01/18 11:35:10;;;;;;;4.57;3.40;;;;;;;;;;5013542;28;88960;-68
2024/01/18 11:37:39;;;;;;;8.27;3.87;;;;;;;;;;5010853;28;89150;-68
2024/01/18 11:40:07;;;;;;;4.87;3.60;;;;;;;;;;5019945;28;89747;-68
2024/01/18 11:42:38;;;;;;;4.17;3.20;;;;;;;;;;5019473;28;89084;-66
2024/01/18 11:45:07;;;;;;;5.03;3.17;;;;;;;;;;5014394;28;89047;-72
2024/01/18 11:47:37;;;;;;;6.37;3.90;;;;;;;;;;5020439;28;87482;-70
2024/01/18 11:50:08;;;;;;;6.00;3.63;;;;;;;;;;5021108;28;90032;-69
2024/01/18 11:52:37;;;;;;;5.53;3.87;;;;;;;;;;5021167;28;89971;-70
2024/01/18 11:55:06;;;;;;;4.77;3.63;;;;;;;;;;5020747;28;89778;-70
2024/01/18 11:57:34;;;;;;;7.20;4.33;;;;;;;;;;5021309;28;87854;-69
2024/01/18 12:00:04;;;;;;;5.97;4.33;;;;;;;;;;5021147;28;89643;-69
2024/01/18 12:02:33;;;;;;;6.13;4.33;;;;;;;;;;5020974;28;88612;-68
2024/01/18 12:05:03;;;;;;;10.13;5.67;;;;;;;;;;5020608;28;88786;-71
2024/01/18 12:07:32;;;;;;;6.57;4.27;;;;;;;;;;5021381;28;87504;-70
2024/01/18 12:10:00;;;;;;;7.03;4.40;;;;;;;;;;5021888;28;89652;-70
2024/01/18 12:12:29;;;;;;;6.10;4.30;;;;;;;;;;5029549;28;89224;-70
2024/01/18 12:14:57;;;;;;;7.97;5.30;;;;;;;;;;5020202;28;88934;-70
2024/01/18 12:17:27;;;;;;;6.70;4.17;;;;;;;;;;5021963;28;87790;-70
2024/01/18 12:19:55;;;;;;;6.13;4.33;;;;;;;;;;5021900;28;89687;-70
2024/01/18 12:22:26;;;;;;;7.17;4.40;;;;;;;;;;5020556;28;89182;-71
2024/01/18 12:24:54;;;;;;;7.23;4.60;;;;;;;;;;5020856;28;89150;-69
2024/01/18 12:27:23;;;;;;;5.50;3.83;;;;;;;;;;5021931;28;87508;-69
2024/01/18 12:29:51;;;;;;;6.53;4.43;;;;;;;;;;5019866;28;89493;-68
2024/01/18 12:32:20;;;;;;;8.80;5.03;;;;;;;;;;5019857;28;89061;-69
2024/01/18 12:34:49;;;;;;;6.83;4.43;;;;;;;;;;5021343;28;89356;-69
2024/01/18 12:37:18;;;;;;;5.83;4.07;;;;;;;;;;5020530;28;87716;-68
2024/01/18 12:39:46;;;;;;;7.60;5.00;;;;;;;;;;5021167;28;88594;-66
2024/01/18 12:42:15;;;;;;;5.97;4.20;;;;;;;;;;5020282;28;90090;-68
2024/01/18 12:44:43;;;;;;;5.93;3.77;;;;;;;;;;5017433;28;89679;-68
2024/01/18 12:47:12;;;;;;;5.70;3.80;;;;;;;;;;5020318;28;87641;-67
2024/01/18 12:49:40;;;;;;;5.30;4.10;;;;;;;;;;5018844;28;89621;-67
2024/01/18 12:52:11;;;;;;;8.00;3.97;;;;;;;;;;5018722;28;89010;-67
2024/01/18 12:54:39;;;;;;;5.77;3.77;;;;;;;;;;5007606;28;88801;-67
2024/01/18 12:57:08;;;;;;;5.83;3.23;;;;;;;;;;5016986;28;88972;-67
2024/01/18 12:59:36;;;;;;;4.77;3.30;;;;;;;;;;5020415;28;89711;-67
2024/01/18 13:02:05;;;;;;;4.77;3.10;;;;;;;;;;5021390;28;89405;-67
2024/01/18 13:04:35;;;;;;;5.07;2.93;;;;;;;;;;5021375;28;88876;-67
2024/01/18 13:07:03;;;;;;;4.40;2.60;;;;;;;;;;5020666;28;87962;-67
2024/01/18 13:09:34;;;;;;;3.53;2.93;;;;;;;;;;5021210;28;89713;-67
2024/01/18 13:12:03;;;;;;;5.77;3.20;;;;;;;;;;5020358;28;89980;-67
2024/01/18 13:14:35;;;;;;;3.53;2.83;;;;;;;;;;5020852;28;88846;-67
2024/01/18 13:17:03;;;;;;;3.73;2.50;;;;;;;;;;5020885;28;87639;-67
2024/01/18 13:19:32;;;;;;;5.97;3.40;;;;;;;;;;5017423;28;89701;-67
2024/01/18 13:22:01;;;;;;;4.40;2.90;;;;;;;;;;5017896;28;89430;-67
2024/01/18 13:24:29;;;;;;;3.63;2.97;;;;;;;;;;5020587;28;89029;-67
2024/01/18 13:27:00;;;;;;;4.10;2.53;;;;;;;;;;5015165;28;88417;-67
2024/01/18 13:29:31;;;;;;;5.07;3.03;;;;;;;;;;5019795;28;89677;-68
2024/01/18 13:31:59;;;;;;;3.60;2.27;;;;;;;;;;5001454;28;90032;-67
2024/01/18 13:34:30;;;;;;;2.93;2.57;;;;;;;;;;5006397;28;89789;-68
2024/01/18 13:37:00;;;;;;;5.40;3.10;;;;;;;;;;5038307;28;87567;-68
2024/01/18 13:39:29;;;;;;;3.83;2.67;;;;;;;;;;5040554;28;89685;-68
2024/01/18 13:41:59;;;;;;;5.27;2.27;;;;;;;;;;5041140;28;89112;-68
2024/01/18 13:44:27;;;;;;;5.20;2.63;;;;;;;;;;5040394;28;88713;-68
2024/01/18 13:46:56;;;;;;;4.00;2.20;;;;;;;;;;5032911;28;87460;-68
2024/01/18 13:49:25;;;;;;;3.97;2.23;;;;;;;;;;5019488;28;88473;-69
2024/01/18 13:51:55;;;;;;;3.57;2.00;;;;;;;;;;5022440;28;89095;-69
2024/01/18 13:54:23;;;;;;;2.27;1.67;;;;;;;;;;5024908;28;88767;-69
2024/01/18 13:56:52;;;;;;;4.33;2.00;;;;;;;;;;5019687;28;87805;-69
2024/01/18 13:59:21;;;;;;;4.60;2.23;;;;;;;;;;5020077;28;89720;-69
2024/01/18 14:01:50;;;;;;;4.87;2.00;;;;;;;;;;5020254;28;89080;-69
2024/01/18 14:04:18;;;;;;;4.67;2.70;;;;;;;;;;5019841;28;88892;-69
2024/01/18 14:06:47;;;;;;;2.57;2.00;;;;;;;;;;5020974;28;87108;-69
2024/01/18 14:09:17;;;;;;;2.27;1.70;;;;;;;;;;5023599;28;89811;-69
2024/01/18 14:11:45;;;;;;;1.90;1.40;;;;;;;;;;5017254;28;89360;-68
2024/01/18 14:14:14;;;;;;;3.53;2.13;;;;;;;;;;5020280;28;88834;-68
2024/01/18 14:16:43;;;;;;;2.20;1.73;;;;;;;;;;5018348;28;87639;-67
2024/01/18 14:19:12;;;;;;;3.67;1.90;;;;;;;;;;5019950;28;89587;-68
2024/01/18 14:21:40;;;;;;;2.87;1.80;;;;;;;;;;5019739;28;90053;-68
2024/01/18 14:24:09;;;;;;;2.53;1.63;;;;;;;;;;5020216;28;89616;-68
2024/01/18 14:26:37;;;;;;;2.70;1.70;;;;;;;;;;5019551;28;87636;-67
2024/01/18 14:29:10;;;;;;;1.83;1.40;;;;;;;;;;5018804;28;89419;-70
2024/01/18 14:31:39;;;;;;;2.53;1.87;;;;;;;;;;5019030;28;88006;-67
2024/01/18 14:34:08;;;;;;;3.73;1.90;;;;;;;;;;5019073;28;89027;-66
2024/01/18 14:36:37;;;;;;;1.97;1.47;;;;;;;;;;5019963;28;87641;-68
2024/01/18 14:39:05;;;;;;;2.10;1.37;;;;;;;;;;5020276;28;89732;-68
2024/01/18 14:41:34;;;;;;;2.47;1.40;;;;;;;;;;5030339;28;89084;-66
2024/01/18 14:44:02;;;;;;;2.50;1.63;;;;;;;;;;5021029;28;88852;-68
2024/01/18 14:46:31;;;;;;;79.40;39.53;;;;;;;;;;5021198;28;87873;-66
2024/01/18 14:49:00;;;;;;;71.37;36.97;;;;;;;;;;5021975;28;89866;-65
2024/01/18 14:51:30;;;;;;;54.23;31.00;;;;;;;;;;5021796;28;89125;-65